createdAt,value
2023-08-26T00:00:32.966Z,52.45
2023-08-26T00:03:06.435Z,48.88
2023-08-26T00:05:38.704Z,51.67
2023-08-26T00:08:11.070Z,50.75
2023-08-26T00:10:43.264Z,46.75
2023-08-26T00:13:15.509Z,49.63
2023-08-26T00:15:47.667Z,55.25
2023-08-26T00:18:19.755Z,52.70
2023-08-26T00:20:53.384Z,47.67
2023-08-26T00:23:25.499Z,53.72
2023-08-26T00:25:57.657Z,54.75
2023-08-26T00:28:29.938Z,49.60
2023-08-26T00:31:02.150Z,49.63
2023-08-26T00:33:34.290Z,49.05
2023-08-26T00:36:06.540Z,47.47
2023-08-26T00:38:38.696Z,48.15
2023-08-26T00:41:10.857Z,44.70
2023-08-26T00:43:42.943Z,42.38
2023-08-26T00:46:15.522Z,44.58
2023-08-26T00:48:48.000Z,49.13
2023-08-26T00:51:20.818Z,48.47
2023-08-26T00:53:53.064Z,77.20
2023-08-26T00:56:25.303Z,152.93
2023-08-26T00:58:57.607Z,70.85
2023-08-26T01:01:33.238Z,53.40
2023-08-26T01:04:05.916Z,55.17
2023-08-26T01:06:38.283Z,54.50
2023-08-26T01:09:10.503Z,53.08
2023-08-26T01:12:23.084Z,52.90
2023-08-26T01:15:09.598Z,50.80
2023-08-26T01:17:45.700Z,51.72
2023-08-26T01:20:18.975Z,51.55
2023-08-26T01:22:54.978Z,55.42
2023-08-26T01:25:27.530Z,48.83
2023-08-26T01:27:59.982Z,48.95
2023-08-26T01:30:33.093Z,50.30
2023-08-26T01:33:23.116Z,51.55
2023-08-26T01:36:00.921Z,50.45
2023-08-26T01:38:33.842Z,45.17
2023-08-26T01:41:08.964Z,38.92
2023-08-26T01:43:42.804Z,38.30
2023-08-26T01:46:17.093Z,41.17
2023-08-26T01:48:49.266Z,40.00
2023-08-26T01:51:24.566Z,41.78
2023-08-26T01:53:56.670Z,42.92
2023-08-26T01:56:28.786Z,36.70
2023-08-26T01:59:01.009Z,42.45
2023-08-26T02:01:34.983Z,38.75
2023-08-26T02:04:07.432Z,42.50
2023-08-26T02:06:41.557Z,36.05
2023-08-26T02:09:16.300Z,40.65
2023-08-26T02:11:48.456Z,30.02
2023-08-26T02:14:20.578Z,39.58
2023-08-26T02:16:52.758Z,38.83
2023-08-26T02:19:24.890Z,39.28
2023-08-26T02:21:57.123Z,40.70
2023-08-26T02:24:30.520Z,41.35
2023-08-26T02:27:02.617Z,44.17
2023-08-26T02:29:34.688Z,39.75
2023-08-26T02:32:08.243Z,36.55
2023-08-26T02:34:40.559Z,44.67
2023-08-26T02:37:12.683Z,41.85
2023-08-26T02:39:44.842Z,39.50
2023-08-26T02:42:17.023Z,42.22
2023-08-26T02:44:49.322Z,44.00
2023-08-26T02:47:21.392Z,40.80
2023-08-26T02:49:53.547Z,40.42
2023-08-26T02:52:25.715Z,38.95
2023-08-26T02:54:57.972Z,38.25
2023-08-26T02:57:30.088Z,36.08
2023-08-26T03:00:04.508Z,33.35
2023-08-26T03:02:37.186Z,36.10
2023-08-26T03:05:09.689Z,39.53
2023-08-26T03:07:41.814Z,39.70
2023-08-26T03:10:13.974Z,40.83
2023-08-26T03:12:46.122Z,50.78
2023-08-26T03:15:18.655Z,46.35
2023-08-26T03:17:50.822Z,55.67
2023-08-26T03:20:23.505Z,59.78
2023-08-26T03:22:55.766Z,57.83
2023-08-26T03:25:27.875Z,56.15
2023-08-26T03:27:59.986Z,59.97
2023-08-26T03:30:32.071Z,58.17
2023-08-26T03:33:05.122Z,59.67
2023-08-26T03:35:40.502Z,53.30
2023-08-26T03:38:12.613Z,53.28
2023-08-26T03:40:44.759Z,56.55
2023-08-26T03:43:17.236Z,59.30
2023-08-26T03:45:49.643Z,50.45
2023-08-26T03:48:25.047Z,47.42
2023-08-26T03:50:58.354Z,54.55
2023-08-26T03:53:30.519Z,47.85
2023-08-26T03:56:02.775Z,52.13
2023-08-26T03:58:35.138Z,48.13
2023-08-26T04:01:07.552Z,50.35
2023-08-26T04:06:12.686Z,48.95
2023-08-26T04:08:46.322Z,41.05
2023-08-26T04:11:19.021Z,39.35
2023-08-26T04:13:51.139Z,39.65
2023-08-26T04:16:23.225Z,38.95
2023-08-26T04:18:55.446Z,47.15
2023-08-26T04:21:27.623Z,38.63
2023-08-26T04:23:59.729Z,37.75
2023-08-26T04:26:31.850Z,32.88
2023-08-26T04:29:03.986Z,39.20
2023-08-26T04:31:36.134Z,34.38
2023-08-26T04:34:08.396Z,34.13
2023-08-26T04:36:40.521Z,31.92
2023-08-26T04:39:12.609Z,32.78
2023-08-26T04:41:44.871Z,30.98
2023-08-26T04:44:22.515Z,32.13
2023-08-26T04:46:54.950Z,26.33
2023-08-26T04:49:27.142Z,27.83
2023-08-26T04:52:00.080Z,25.65
2023-08-26T04:54:32.328Z,24.35
2023-08-26T04:57:04.759Z,23.17
2023-08-26T04:59:38.300Z,27.75
2023-08-26T05:02:10.485Z,28.42
2023-08-26T05:04:42.885Z,27.30
2023-08-26T05:07:15.089Z,25.08
2023-08-26T05:09:47.595Z,23.38
2023-08-26T05:12:24.099Z,33.35
2023-08-26T05:14:56.302Z,26.23
2023-08-26T05:17:28.740Z,19.83
2023-08-26T05:20:00.950Z,24.63
2023-08-26T05:22:33.248Z,23.33
2023-08-26T05:25:06.875Z,25.58
2023-08-26T05:27:39.000Z,18.15
2023-08-26T05:30:12.179Z,26.00
2023-08-26T05:32:44.418Z,24.70
2023-08-26T05:35:16.712Z,23.48
2023-08-26T05:37:49.111Z,21.70
2023-08-26T05:40:28.062Z,19.00
2023-08-26T05:43:00.794Z,21.75
2023-08-26T05:45:33.974Z,20.08
2023-08-26T05:48:06.749Z,21.42
2023-08-26T05:50:39.005Z,19.40
2023-08-26T05:53:11.455Z,20.70
2023-08-26T05:55:43.880Z,22.20
2023-08-26T05:58:16.025Z,20.15
2023-08-26T06:00:50.869Z,20.02
2023-08-26T06:03:23.157Z,20.33
2023-08-26T06:05:55.409Z,17.33
2023-08-26T06:08:27.666Z,17.38
2023-08-26T06:10:59.816Z,20.55
2023-08-26T06:13:31.934Z,20.98
2023-08-26T06:16:04.262Z,21.23
2023-08-26T06:18:36.423Z,17.17
2023-08-26T06:21:08.662Z,17.48
2023-08-26T06:23:41.269Z,14.35
2023-08-26T06:26:13.449Z,15.55
2023-08-26T06:28:45.773Z,14.50
2023-08-26T06:31:17.989Z,12.85
2023-08-26T06:33:50.893Z,17.45
2023-08-26T06:36:22.993Z,14.32
2023-08-26T06:38:55.114Z,15.32
2023-08-26T06:41:29.748Z,10.20
2023-08-26T06:44:02.982Z,8.45
2023-08-26T06:46:35.223Z,10.13
2023-08-26T06:49:08.405Z,9.85
2023-08-26T06:51:40.572Z,8.05
2023-08-26T06:54:12.697Z,10.93
2023-08-26T06:56:44.793Z,6.72
2023-08-26T06:59:17.065Z,11.25
2023-08-26T07:01:49.241Z,9.85
2023-08-26T07:04:21.706Z,12.77
2023-08-26T07:06:54.359Z,9.40
2023-08-26T07:09:26.628Z,10.93
2023-08-26T07:12:01.042Z,8.60
2023-08-26T07:14:34.773Z,6.40
2023-08-26T07:17:06.882Z,12.25
2023-08-26T07:19:38.965Z,7.68
2023-08-26T07:22:11.543Z,10.05
2023-08-26T07:24:46.680Z,7.72
2023-08-26T07:27:19.724Z,9.25
2023-08-26T07:29:51.875Z,7.18
2023-08-26T07:32:24.354Z,6.15
2023-08-26T07:34:56.476Z,11.75
2023-08-26T07:37:30.841Z,5.28
2023-08-26T07:40:07.090Z,7.28
2023-08-26T07:42:39.346Z,9.32
2023-08-26T07:45:12.616Z,7.45
2023-08-26T07:50:19.959Z,7.63
2023-08-26T07:52:54.973Z,7.55
2023-08-26T07:55:27.407Z,9.50
2023-08-26T07:57:59.722Z,5.53
2023-08-26T08:00:31.823Z,9.35
2023-08-26T08:03:04.212Z,6.60
2023-08-26T08:05:36.560Z,4.82
2023-08-26T08:08:08.648Z,5.35
2023-08-26T08:10:41.423Z,5.47
2023-08-26T08:13:15.044Z,8.15
2023-08-26T08:15:47.290Z,6.82
2023-08-26T08:18:19.418Z,6.70
2023-08-26T08:20:51.586Z,4.80
2023-08-26T08:23:23.862Z,5.70
2023-08-26T08:25:55.967Z,7.32
2023-08-26T08:28:28.067Z,6.30
2023-08-26T08:31:00.659Z,4.18
2023-08-26T08:33:34.581Z,6.22
2023-08-26T08:36:06.789Z,9.02
2023-08-26T08:38:38.905Z,6.15
2023-08-26T08:41:11.001Z,6.00
2023-08-26T08:43:46.967Z,7.65
2023-08-26T08:46:21.865Z,7.32
2023-08-26T08:48:54.027Z,18.42
2023-08-26T08:51:28.975Z,8.30
2023-08-26T08:54:05.543Z,8.00
2023-08-26T08:56:38.720Z,10.27
2023-08-26T08:59:12.954Z,9.30
2023-08-26T09:01:45.628Z,13.45
2023-08-26T09:04:17.814Z,11.02
2023-08-26T09:06:50.510Z,9.82
2023-08-26T09:09:33.796Z,10.25
2023-08-26T09:12:09.760Z,10.40
2023-08-26T09:14:41.996Z,18.60
2023-08-26T09:17:19.593Z,11.82
2023-08-26T09:19:56.928Z,13.80
2023-08-26T09:22:31.334Z,16.98
2023-08-26T09:25:06.341Z,16.88
2023-08-26T09:27:44.985Z,17.67
2023-08-26T09:30:23.296Z,22.70
2023-08-26T09:32:56.557Z,20.95
2023-08-26T09:38:03.869Z,27.13
2023-08-26T09:40:36.027Z,41.35
2023-08-26T09:43:09.402Z,45.40
2023-08-26T09:45:41.601Z,38.45
2023-08-26T09:48:25.652Z,38.42
2023-08-26T09:50:57.770Z,43.72
2023-08-26T09:53:34.874Z,41.72
2023-08-26T09:56:07.331Z,36.50
2023-08-26T09:58:39.438Z,44.55
2023-08-26T10:01:11.631Z,39.75
2023-08-26T10:03:50.914Z,49.65
2023-08-26T10:06:27.350Z,41.40
2023-08-26T10:09:18.557Z,39.63
2023-08-26T10:11:56.360Z,32.28
2023-08-26T10:14:30.783Z,31.40
2023-08-26T10:17:05.160Z,33.30
2023-08-26T10:19:37.699Z,30.40
2023-08-26T10:22:10.950Z,36.20
2023-08-26T10:24:46.188Z,31.38
2023-08-26T10:27:19.508Z,32.75
2023-08-26T10:29:51.920Z,24.65
2023-08-26T10:32:24.540Z,22.50
2023-08-26T10:35:00.468Z,22.77
2023-08-26T10:37:33.900Z,25.23
2023-08-26T10:40:10.192Z,22.08
2023-08-26T10:43:06.534Z,16.85
2023-08-26T10:45:58.896Z,16.98
2023-08-26T10:48:31.134Z,12.90
2023-08-26T10:51:03.984Z,12.82
2023-08-26T10:53:45.896Z,13.10
2023-08-26T10:56:22.775Z,16.67
2023-08-26T10:59:04.649Z,10.90
2023-08-26T11:01:38.051Z,9.98
2023-08-26T11:04:10.370Z,8.07
2023-08-26T11:06:42.994Z,15.45
2023-08-26T11:09:20.750Z,8.32
2023-08-26T11:11:53.954Z,8.13
2023-08-26T11:14:35.831Z,9.55
2023-08-26T11:17:08.550Z,7.75
2023-08-26T11:19:40.835Z,11.90
2023-08-26T11:22:12.994Z,7.45
2023-08-26T11:24:49.968Z,7.10
2023-08-26T11:27:22.079Z,14.23
2023-08-26T11:29:54.278Z,9.88
2023-08-26T11:32:32.085Z,8.88
2023-08-26T11:35:14.476Z,4.15
2023-08-26T11:37:52.198Z,11.27
2023-08-26T11:40:24.959Z,9.07
2023-08-26T11:42:57.157Z,10.93
2023-08-26T11:45:29.709Z,7.57
2023-08-26T11:48:02.051Z,9.48
2023-08-26T11:50:36.192Z,10.27
2023-08-26T11:53:08.667Z,8.98
2023-08-26T11:55:42.983Z,9.80
2023-08-26T11:58:15.134Z,9.20
2023-08-26T12:00:49.303Z,5.40
2023-08-26T12:03:21.848Z,11.43
2023-08-26T12:05:54.209Z,4.70
2023-08-26T12:08:26.377Z,6.47
2023-08-26T12:10:59.393Z,7.85
2023-08-26T12:13:39.897Z,5.40
2023-08-26T12:16:14.383Z,5.50
2023-08-26T12:18:49.525Z,5.25
2023-08-26T12:21:21.741Z,5.75
2023-08-26T12:23:53.921Z,3.33
2023-08-26T12:26:26.755Z,4.40
2023-08-26T12:29:00.065Z,4.43
2023-08-26T12:31:35.774Z,8.45
2023-08-26T12:34:08.424Z,4.18
2023-08-26T12:36:40.607Z,4.40
2023-08-26T12:39:12.936Z,3.08
2023-08-26T12:41:46.333Z,5.53
2023-08-26T12:44:19.141Z,6.03
2023-08-26T12:46:52.097Z,5.72
2023-08-26T12:49:28.072Z,4.90
2023-08-26T12:52:00.664Z,3.42
2023-08-26T12:54:32.778Z,3.10
2023-08-26T12:57:05.226Z,9.10
2023-08-26T12:59:37.481Z,3.58
2023-08-26T13:02:09.880Z,4.68
2023-08-26T13:04:43.175Z,2.88
2023-08-26T13:07:17.252Z,4.10
2023-08-26T13:09:49.743Z,6.20
2023-08-26T13:12:22.054Z,3.95
2023-08-26T13:14:54.260Z,5.10
2023-08-26T13:17:27.235Z,8.02
2023-08-26T13:20:00.294Z,11.25
2023-08-26T13:22:32.545Z,7.25
2023-08-26T13:25:05.625Z,8.43
2023-08-26T13:27:37.877Z,23.80
2023-08-26T13:30:10.187Z,33.17
2023-08-26T13:32:42.411Z,5.15
2023-08-26T13:35:16.637Z,11.43
2023-08-26T13:37:49.525Z,8.18
2023-08-26T13:40:21.781Z,5.53
2023-08-26T13:42:56.400Z,7.05
2023-08-26T13:45:28.629Z,6.75
2023-08-26T13:48:01.197Z,4.90
2023-08-26T13:50:33.509Z,3.58
2023-08-26T13:53:05.842Z,5.88
2023-08-26T13:55:38.195Z,4.18
2023-08-26T13:58:10.340Z,4.82
2023-08-26T14:00:42.483Z,5.20
2023-08-26T14:03:14.661Z,5.45
2023-08-26T14:05:47.540Z,3.95
2023-08-26T14:08:23.433Z,8.80
2023-08-26T14:10:55.623Z,7.38
2023-08-26T14:13:27.935Z,6.03
2023-08-26T14:16:00.156Z,8.50
2023-08-26T14:18:32.443Z,6.72
2023-08-26T14:21:04.746Z,8.55
2023-08-26T14:23:36.937Z,8.57
2023-08-26T14:26:09.091Z,8.00
2023-08-26T14:28:41.236Z,7.15
2023-08-26T14:31:13.516Z,13.13
2023-08-26T14:33:47.065Z,11.32
2023-08-26T14:36:19.216Z,4.05
2023-08-26T14:38:51.406Z,6.35
2023-08-26T14:41:23.471Z,8.48
2023-08-26T14:43:55.782Z,6.95
2023-08-26T14:46:28.195Z,9.88
2023-08-26T14:49:00.405Z,6.07
2023-08-26T14:51:32.672Z,3.65
2023-08-26T14:54:05.784Z,5.20
2023-08-26T14:56:37.970Z,12.27
2023-08-26T14:59:10.298Z,4.57
2023-08-26T15:01:42.468Z,4.55
2023-08-26T15:04:14.645Z,6.55
2023-08-26T15:06:47.569Z,3.65
2023-08-26T15:09:23.015Z,7.60
2023-08-26T15:11:55.379Z,4.40
2023-08-26T15:14:27.524Z,5.63
2023-08-26T15:17:01.020Z,8.02
2023-08-26T15:19:33.219Z,7.13
2023-08-26T15:22:05.433Z,3.78
2023-08-26T15:24:37.679Z,3.65
2023-08-26T15:27:09.848Z,5.70
2023-08-26T15:29:42.548Z,4.68
2023-08-26T15:32:15.088Z,5.75
2023-08-26T15:34:47.264Z,6.35
2023-08-26T15:37:19.835Z,6.43
2023-08-26T15:39:51.962Z,8.55
2023-08-26T15:42:24.093Z,4.50
2023-08-26T15:44:56.330Z,5.10
2023-08-26T15:47:28.903Z,4.53
2023-08-26T15:50:03.095Z,4.50
2023-08-26T15:52:36.144Z,4.28
2023-08-26T15:55:08.417Z,8.55
2023-08-26T15:57:40.582Z,2.75
2023-08-26T16:00:17.387Z,3.63
2023-08-26T16:02:49.585Z,3.78
2023-08-26T16:05:21.788Z,5.75
2023-08-26T16:07:54.026Z,6.45
2023-08-26T16:10:26.171Z,5.30
2023-08-26T16:12:58.961Z,3.38
2023-08-26T16:15:34.898Z,5.30
2023-08-26T16:18:07.208Z,3.63
2023-08-26T16:20:39.388Z,4.13
2023-08-26T16:23:11.488Z,6.93
2023-08-26T16:25:43.768Z,4.78
2023-08-26T16:28:15.915Z,5.63
2023-08-26T16:30:48.483Z,6.80
2023-08-26T16:33:23.775Z,5.18
2023-08-26T16:35:56.517Z,5.35
2023-08-26T16:38:28.812Z,4.25
2023-08-26T16:41:02.294Z,5.97
2023-08-26T16:43:34.933Z,4.75
2023-08-26T16:46:09.200Z,5.75
2023-08-26T16:48:41.948Z,5.70
2023-08-26T16:51:14.185Z,7.50
2023-08-26T16:53:46.810Z,3.63
2023-08-26T16:56:19.010Z,7.63
2023-08-26T16:58:51.217Z,7.88
2023-08-26T17:01:23.619Z,2.97
2023-08-26T17:03:55.864Z,4.13
2023-08-26T17:06:28.053Z,3.97
2023-08-26T17:09:00.148Z,2.22
2023-08-26T17:11:32.344Z,4.93
2023-08-26T17:14:04.762Z,2.75
2023-08-26T17:16:36.979Z,2.75
2023-08-26T17:19:09.364Z,5.03
2023-08-26T17:21:41.593Z,3.97
2023-08-26T17:24:14.148Z,7.63
2023-08-26T17:26:46.276Z,5.38
2023-08-26T17:29:18.940Z,5.22
2023-08-26T17:31:51.067Z,4.97
2023-08-26T17:34:23.241Z,4.85
2023-08-26T17:36:55.520Z,9.15
2023-08-26T17:39:27.669Z,5.97
2023-08-26T17:42:01.869Z,8.88
2023-08-26T17:44:34.390Z,5.40
2023-08-26T17:47:06.549Z,12.98
2023-08-26T17:49:39.789Z,2.30
2023-08-26T17:52:12.503Z,5.32
2023-08-26T17:54:46.460Z,19.25
2023-08-26T17:57:18.821Z,7.97
2023-08-26T17:59:50.915Z,18.95
2023-08-26T18:02:23.193Z,12.00
2023-08-26T18:04:55.270Z,12.43
2023-08-26T18:07:27.663Z,7.57
2023-08-26T18:10:00.206Z,28.90
2023-08-26T18:12:32.431Z,18.02
2023-08-26T18:15:05.453Z,8.15
2023-08-26T18:17:37.625Z,7.95
2023-08-26T18:20:12.881Z,14.65
2023-08-26T18:22:45.408Z,8.90
2023-08-26T18:25:17.531Z,16.67
2023-08-26T18:27:49.785Z,5.85
2023-08-26T18:30:22.059Z,7.57
2023-08-26T18:32:54.344Z,14.80
2023-08-26T18:35:26.473Z,19.30
2023-08-26T18:37:58.805Z,12.00
2023-08-26T18:40:31.131Z,21.17
2023-08-26T18:43:03.456Z,9.30
2023-08-26T18:45:35.604Z,8.13
2023-08-26T18:48:08.260Z,7.18
2023-08-26T18:50:40.427Z,9.07
2023-08-26T18:53:13.161Z,9.27
2023-08-26T18:55:50.926Z,19.05
2023-08-26T18:58:25.249Z,10.07
2023-08-26T19:00:57.741Z,11.63
2023-08-26T19:03:30.064Z,9.40
2023-08-26T19:06:02.462Z,5.53
2023-08-26T19:08:36.295Z,5.30
2023-08-26T19:11:08.417Z,7.40
2023-08-26T19:13:41.571Z,5.88
2023-08-26T19:16:13.942Z,8.73
2023-08-26T19:18:46.247Z,4.97
2023-08-26T19:21:18.678Z,12.43
2023-08-26T19:23:50.932Z,8.57
2023-08-26T19:26:23.184Z,11.43
2023-08-26T19:28:55.564Z,6.50
2023-08-26T19:31:28.342Z,9.50
2023-08-26T19:34:00.564Z,6.18
2023-08-26T19:36:32.724Z,6.68
2023-08-26T19:39:04.991Z,7.85
2023-08-26T19:41:37.310Z,12.00
2023-08-26T19:44:12.343Z,5.72
2023-08-26T19:46:44.452Z,7.15
2023-08-26T19:49:16.735Z,6.13
2023-08-26T19:51:49.055Z,9.40
2023-08-26T19:54:21.235Z,6.28
2023-08-26T19:56:56.333Z,7.60
2023-08-26T19:59:28.479Z,7.82
2023-08-26T20:02:00.673Z,10.20
2023-08-26T20:04:32.870Z,7.00
2023-08-26T20:07:04.996Z,7.35
2023-08-26T20:09:37.308Z,7.20
2023-08-26T20:12:09.513Z,7.93
2023-08-26T20:14:42.901Z,5.45
2023-08-26T20:17:15.014Z,4.82
2023-08-26T20:19:47.211Z,5.13
2023-08-26T20:22:19.349Z,7.38
2023-08-26T20:24:51.765Z,2.72
2023-08-26T20:27:24.272Z,6.15
2023-08-26T20:29:56.442Z,2.97
2023-08-26T20:32:29.181Z,8.65
2023-08-26T20:35:01.349Z,4.45
2023-08-26T20:37:33.777Z,5.00
2023-08-26T20:40:09.664Z,5.05
2023-08-26T20:42:42.893Z,7.10
2023-08-26T20:45:15.040Z,5.97
2023-08-26T20:47:47.241Z,5.93
2023-08-26T20:50:19.368Z,6.57
2023-08-26T20:52:51.478Z,7.00
2023-08-26T20:55:23.695Z,9.15
2023-08-26T20:57:55.818Z,8.05
2023-08-26T21:00:28.174Z,6.93
2023-08-26T21:03:00.909Z,6.03
2023-08-26T21:05:34.106Z,15.02
2023-08-26T21:08:06.735Z,7.22
2023-08-26T21:10:38.853Z,7.00
2023-08-26T21:13:11.240Z,4.70
2023-08-26T21:15:46.456Z,8.20
2023-08-26T21:18:19.180Z,10.45
2023-08-26T21:20:52.867Z,3.60
2023-08-26T21:23:25.108Z,4.72
2023-08-26T21:25:57.762Z,3.40
2023-08-26T21:28:30.650Z,9.20
2023-08-26T21:31:09.209Z,8.95
2023-08-26T21:33:41.602Z,5.30
2023-08-26T21:36:13.901Z,6.03
2023-08-26T21:38:46.081Z,5.55
2023-08-26T21:41:18.625Z,5.60
2023-08-26T21:43:52.483Z,4.63
2023-08-26T21:46:24.643Z,7.18
2023-08-26T21:48:59.984Z,5.00
2023-08-26T21:51:32.160Z,3.20
2023-08-26T21:54:04.490Z,6.35
2023-08-26T21:56:36.607Z,5.50
2023-08-26T21:59:08.824Z,8.77
2023-08-26T22:01:41.010Z,5.07
2023-08-26T22:04:13.162Z,6.38
2023-08-26T22:06:45.299Z,6.85
2023-08-26T22:09:17.372Z,5.47
2023-08-26T22:11:50.767Z,8.63
2023-08-26T22:14:22.914Z,6.03
2023-08-26T22:16:55.164Z,6.35
2023-08-26T22:19:27.379Z,7.55
2023-08-26T22:21:59.490Z,7.78
2023-08-26T22:24:31.632Z,10.00
2023-08-26T22:27:03.941Z,8.60
2023-08-26T22:29:36.070Z,6.05
2023-08-26T22:32:08.158Z,7.32
2023-08-26T22:34:40.249Z,4.85
2023-08-26T22:37:13.702Z,5.25
2023-08-26T22:39:45.889Z,6.40
2023-08-26T22:42:18.045Z,5.72
2023-08-26T22:44:50.245Z,5.45
2023-08-26T22:47:22.408Z,7.25
2023-08-26T22:49:59.988Z,5.82
2023-08-26T22:52:33.413Z,17.85
2023-08-26T22:55:07.312Z,17.70
2023-08-26T22:57:39.445Z,12.38
2023-08-26T23:00:11.938Z,7.90
2023-08-26T23:02:44.814Z,9.48
2023-08-26T23:05:17.102Z,7.38
2023-08-26T23:07:49.347Z,8.00
2023-08-26T23:10:21.565Z,8.73
2023-08-26T23:12:53.679Z,7.03
2023-08-26T23:15:25.920Z,10.68
2023-08-26T23:17:58.133Z,8.75
2023-08-26T23:20:30.262Z,6.70
2023-08-26T23:23:02.405Z,10.40
2023-08-26T23:25:34.619Z,8.85
2023-08-26T23:28:06.983Z,8.02
2023-08-26T23:30:43.282Z,7.93
2023-08-26T23:33:18.180Z,5.43
2023-08-26T23:35:50.380Z,9.15
2023-08-26T23:38:22.514Z,8.45
2023-08-26T23:40:54.610Z,5.95
2023-08-26T23:43:26.763Z,4.85
2023-08-26T23:45:58.834Z,7.97
2023-08-26T23:48:31.056Z,12.10
2023-08-26T23:51:03.333Z,6.70
2023-08-26T23:53:35.427Z,7.05
2023-08-26T23:56:07.560Z,5.32
2023-08-26T23:58:39.796Z,6.72
